McKinleyville, CA

12:43 AM PST on December 07, 2016 (GMT -0800)
Arcata | | Change Station

Elev 217 ft 40.98 °N, 124.10 °W | Updated 50 minutes ago

Clear
Clear
36 °F
Feels Like 31 °F
N
6
Wind Variable Wind from East

Today
High -- | Low -- °F
--% Chance of Precip.
Yesterday
High -- | Low -- °F
Precip. -- in
Pressure 30.21 in
Visibility 10.0 miles
Clouds Clear
Windchill 31 °F
Dew Point 35 °F
Humidity 97%
Rainfall 0.29 in
Snow Depth Not available.
7:28 AM 4:48 PM
Waxing Crescent, 50% visible
METAR KACV 070753Z AUTO 09005KT 10SM CLR 02/02 A3018 RMK AO2 SLP229 T00220017 400940011
Pressure 30.21 in
Visibility 10.0 miles
Clouds Clear
Windchill 31 °F
Dew Point 35 °F
Humidity 97%
Rainfall 0.29 in
Snow Depth Not available.
7:28 AM 4:48 PM
Waxing Crescent, 50% visible
METAR KACV 070753Z AUTO 09005KT 10SM CLR 02/02 A3018 RMK AO2 SLP229 T00220017 400940011

10-Day Weather Forecast

Almanac

Astronomy

Dec. 07, 2016 Rise Set
Actual Time
Civil Twilight
Nautical Twilight
Astronomical Twilight
Moon
Length of Visible Light
Length of Day
Tomorrow will be .
, % of the Moon is Illuminated

Today's Extremes

State Highs State Lows

Community

WunderPhotos

Upload Photos

1,956,104 photos uploaded!

WunderBlog® & News

Nearby

Air Quality

  Air Quality AQ Index Pollutant
Not available.

Snow Depth

Station Depth Elevation

Earthquake Activity

City Distance Mag. Time & Date
Minimum magnitude displayed is 2.5.

Coastal Water Temperatures

Place Temperature

Stations

Nearby Weather Stations

Station Location Temp. Windchill Dew Point Humidity Wind Precip. Elev Updated Type
                   

Watches & Warnings

There are currently no watches in effect.